createdAt,value
2023-03-01T00:00:01.242Z,103160
2023-03-01T00:05:00.628Z,103150
2023-03-01T00:10:00.659Z,103150
2023-03-01T00:15:00.694Z,103140
2023-03-01T00:20:00.705Z,103150
2023-03-01T00:25:00.646Z,103150
2023-03-01T00:30:00.785Z,103150
2023-03-01T00:35:00.638Z,103140
2023-03-01T00:40:00.631Z,103130
2023-03-01T00:45:00.678Z,103130
2023-03-01T00:50:00.654Z,103130
2023-03-01T00:55:00.654Z,103140
2023-03-01T01:00:01.048Z,103140
2023-03-01T01:05:00.715Z,103130
2023-03-01T01:10:00.819Z,103130
2023-03-01T01:15:00.637Z,103120
2023-03-01T01:20:00.765Z,103120
2023-03-01T01:25:00.691Z,103110
2023-03-01T01:30:00.714Z,103100
2023-03-01T01:35:00.821Z,103090
2023-03-01T01:40:01.578Z,103100
2023-03-01T01:45:20.511Z,103100
2023-03-01T01:50:01.865Z,103090
2023-03-01T01:55:09.747Z,103080
2023-03-01T02:00:06.174Z,103080
2023-03-01T02:05:09.407Z,103090
2023-03-01T02:10:01.954Z,103080
2023-03-01T02:15:00.666Z,103080
2023-03-01T02:20:11.608Z,103070
2023-03-01T02:25:18.063Z,103070
2023-03-01T02:30:00.770Z,103070
2023-03-01T02:35:01.314Z,103060
2023-03-01T02:40:05.702Z,103070
2023-03-01T02:45:00.710Z,103070
2023-03-01T02:50:00.670Z,103050
2023-03-01T02:55:01.644Z,103050
2023-03-01T03:00:06.275Z,103050
2023-03-01T03:05:00.632Z,103050
2023-03-01T03:10:01.149Z,103050
2023-03-01T03:15:00.700Z,103060
2023-03-01T03:20:00.765Z,103050
2023-03-01T03:25:00.643Z,103040
2023-03-01T03:30:00.645Z,103040
2023-03-01T03:35:00.723Z,103030
2023-03-01T03:40:00.665Z,103040
2023-03-01T03:45:00.644Z,103040
2023-03-01T03:50:00.651Z,103040
2023-03-01T03:55:00.632Z,103030
2023-03-01T04:00:01.585Z,103030
2023-03-01T04:05:00.622Z,103030
2023-03-01T04:10:01.714Z,103020
2023-03-01T04:15:01.430Z,103010
2023-03-01T04:20:00.629Z,103020
2023-03-01T04:25:00.833Z,103020
2023-03-01T04:30:01.201Z,103020
2023-03-01T04:35:00.724Z,103020
2023-03-01T04:40:02.702Z,103020
2023-03-01T04:45:00.658Z,103010
2023-03-01T04:50:00.626Z,103010
2023-03-01T04:55:01.640Z,103010
2023-03-01T05:00:01.228Z,103000
2023-03-01T05:05:00.673Z,103000
2023-03-01T05:10:00.684Z,102990
2023-03-01T05:15:00.705Z,102980
2023-03-01T05:20:00.987Z,102970
2023-03-01T05:25:00.677Z,102960
2023-03-01T05:30:00.793Z,102940
2023-03-01T05:35:00.665Z,102950
2023-03-01T05:40:00.707Z,102930
2023-03-01T05:45:00.690Z,102930
2023-03-01T05:50:01.097Z,102920
2023-03-01T05:55:00.659Z,102920
2023-03-01T06:00:02.117Z,102920
2023-03-01T06:05:00.930Z,102920
2023-03-01T06:10:01.238Z,102920
2023-03-01T06:15:01.061Z,102920
2023-03-01T06:20:00.621Z,102930
2023-03-01T06:25:00.952Z,102940
2023-03-01T06:30:00.939Z,102940
2023-03-01T06:35:00.639Z,102940
2023-03-01T06:40:00.927Z,102930
2023-03-01T06:45:00.818Z,102930
2023-03-01T06:50:01.575Z,102930
2023-03-01T06:55:00.809Z,102940
2023-03-01T07:00:01.164Z,102940
2023-03-01T07:05:00.617Z,102940
2023-03-01T07:10:00.703Z,102940
2023-03-01T07:15:00.674Z,102940
2023-03-01T07:20:00.609Z,102940
2023-03-01T07:25:00.645Z,102940
2023-03-01T07:30:00.729Z,102940
2023-03-01T07:35:00.640Z,102940
2023-03-01T07:40:00.633Z,102940
2023-03-01T07:45:00.668Z,102940
2023-03-01T07:50:00.804Z,102950
2023-03-01T07:55:00.610Z,102950
2023-03-01T08:00:02.134Z,102960
2023-03-01T08:05:00.645Z,102970
2023-03-01T08:10:00.731Z,102970
2023-03-01T08:15:00.657Z,102970
2023-03-01T08:20:00.619Z,102970
2023-03-01T08:25:00.623Z,102960
2023-03-01T08:30:00.733Z,102960
2023-03-01T08:35:00.622Z,102960
2023-03-01T08:40:00.678Z,102960
2023-03-01T08:45:00.678Z,102950
2023-03-01T08:50:00.904Z,102950
2023-03-01T08:55:00.655Z,102940
2023-03-01T09:00:01.317Z,102940
2023-03-01T09:05:00.655Z,102940
2023-03-01T09:10:00.644Z,102930
2023-03-01T09:15:00.654Z,102930
2023-03-01T09:20:00.839Z,102920
2023-03-01T09:25:00.871Z,102910
2023-03-01T09:30:00.807Z,102900
2023-03-01T09:35:00.660Z,102890
2023-03-01T09:40:01.135Z,102890
2023-03-01T09:45:04.512Z,102890
2023-03-01T09:50:09.696Z,102880
2023-03-01T09:55:01.277Z,102870
2023-03-01T10:00:11.850Z,102870
2023-03-01T10:05:18.549Z,102870
2023-03-01T10:10:00.752Z,102870
2023-03-01T10:15:18.074Z,102870
2023-03-01T10:20:15.510Z,102880
2023-03-01T10:25:03.361Z,102880
2023-03-01T10:30:11.605Z,102870
2023-03-01T10:35:00.624Z,102860
2023-03-01T10:40:05.778Z,102850
2023-03-01T10:45:20.522Z,102840
2023-03-01T10:50:04.602Z,102830
2023-03-01T10:55:13.054Z,102830
2023-03-01T11:00:13.793Z,102830
2023-03-01T11:05:13.865Z,102820
2023-03-01T11:10:12.287Z,102820
2023-03-01T11:15:00.679Z,102810
2023-03-01T11:20:12.496Z,102800
2023-03-01T11:25:10.016Z,102810
2023-03-01T11:30:02.670Z,102800
2023-03-01T11:35:10.587Z,102800
2023-03-01T11:40:08.126Z,102790
2023-03-01T11:45:06.155Z,102790
2023-03-01T11:50:10.460Z,102780
2023-03-01T11:55:20.524Z,102780
2023-03-01T12:00:20.616Z,102790
2023-03-01T12:05:08.412Z,102780
2023-03-01T12:10:11.603Z,102770
2023-03-01T12:15:11.604Z,102770
2023-03-01T12:20:14.566Z,102760
2023-03-01T12:25:18.027Z,102760
2023-03-01T12:30:03.940Z,102760
2023-03-01T12:35:14.737Z,102760
2023-03-01T12:40:13.855Z,102750
2023-03-01T12:45:11.611Z,102750
2023-03-01T12:50:10.420Z,102720
2023-03-01T12:55:06.406Z,102710
2023-03-01T13:00:20.375Z,102710
2023-03-01T13:05:20.536Z,102700
2023-03-01T13:10:15.924Z,102690
2023-03-01T13:15:00.618Z,102680
2023-03-01T13:20:00.816Z,102680
2023-03-01T13:25:02.919Z,102670
2023-03-01T13:30:00.641Z,102660
2023-03-01T13:35:02.324Z,102660
2023-03-01T13:40:04.152Z,102650
2023-03-01T13:45:01.084Z,102650
2023-03-01T13:50:03.192Z,102640
2023-03-01T13:55:01.296Z,102620
2023-03-01T14:00:03.341Z,102630
2023-03-01T14:05:01.137Z,102620
2023-03-01T14:10:04.071Z,102610
2023-03-01T14:15:13.150Z,102610
2023-03-01T14:20:11.074Z,102600
2023-03-01T14:25:03.339Z,102590
2023-03-01T14:30:10.591Z,102580
2023-03-01T14:35:00.717Z,102570
2023-03-01T14:40:03.991Z,102560
2023-03-01T14:45:02.000Z,102550
2023-03-01T14:50:07.501Z,102550
2023-03-01T14:55:05.057Z,102550
2023-03-01T15:00:04.049Z,102540
2023-03-01T15:05:03.615Z,102540
2023-03-01T15:10:02.408Z,102550
2023-03-01T15:15:04.771Z,102540
2023-03-01T15:20:03.986Z,102540
2023-03-01T15:25:00.746Z,102530
2023-03-01T15:30:03.427Z,102530
2023-03-01T15:35:11.387Z,102520
2023-03-01T15:40:00.696Z,102520
2023-03-01T15:45:13.867Z,102520
2023-03-01T15:50:00.886Z,102520
2023-03-01T15:55:05.330Z,102510
2023-03-01T16:00:02.346Z,102510
2023-03-01T16:05:00.711Z,102520
2023-03-01T16:10:00.861Z,102510
2023-03-01T16:15:00.862Z,102510
2023-03-01T16:20:00.708Z,102510
2023-03-01T16:25:00.739Z,102510
2023-03-01T16:30:00.927Z,102510
2023-03-01T16:35:00.841Z,102500
2023-03-01T16:40:01.626Z,102500
2023-03-01T16:45:00.823Z,102500
2023-03-01T16:50:00.864Z,102500
2023-03-01T16:55:02.768Z,102500
2023-03-01T17:00:01.263Z,102500
2023-03-01T17:05:01.371Z,102510
2023-03-01T17:10:02.416Z,102510
2023-03-01T17:15:00.666Z,102510
2023-03-01T17:20:02.900Z,102500
2023-03-01T17:25:00.710Z,102500
2023-03-01T17:30:00.772Z,102500
2023-03-01T17:35:00.705Z,102500
2023-03-01T17:40:00.677Z,102490
2023-03-01T17:45:00.731Z,102500
2023-03-01T17:50:00.791Z,102500
2023-03-01T17:55:00.708Z,102510
2023-03-01T18:00:01.293Z,102520
2023-03-01T18:05:00.710Z,102520
2023-03-01T18:10:00.820Z,102520
2023-03-01T18:15:00.742Z,102530
2023-03-01T18:20:00.767Z,102530
2023-03-01T18:25:00.739Z,102520
2023-03-01T18:30:00.790Z,102530
2023-03-01T18:35:00.696Z,102530
2023-03-01T18:40:00.727Z,102530
2023-03-01T18:45:00.759Z,102530
2023-03-01T18:50:00.676Z,102530
2023-03-01T18:55:00.694Z,102530
2023-03-01T19:00:02.996Z,102530
2023-03-01T19:05:00.822Z,102530
2023-03-01T19:10:00.757Z,102530
2023-03-01T19:15:00.736Z,102530
2023-03-01T19:20:00.608Z,102540
2023-03-01T19:25:00.662Z,102540
2023-03-01T19:30:00.709Z,102540
2023-03-01T19:35:00.671Z,102530
2023-03-01T19:40:00.646Z,102530
2023-03-01T19:45:00.697Z,102530
2023-03-01T19:50:00.718Z,102520
2023-03-01T19:55:08.848Z,102530
2023-03-01T20:00:02.272Z,102540
2023-03-01T20:05:00.653Z,102540
2023-03-01T20:10:00.707Z,102530
2023-03-01T20:15:00.631Z,102530
2023-03-01T20:20:00.965Z,102530
2023-03-01T20:25:00.748Z,102530
2023-03-01T20:30:00.728Z,102520
2023-03-01T20:35:00.749Z,102520
2023-03-01T20:40:00.662Z,102520
2023-03-01T20:45:00.689Z,102520
2023-03-01T20:50:00.680Z,102510
2023-03-01T20:55:00.673Z,102510
2023-03-01T21:00:05.693Z,102510
2023-03-01T21:05:00.613Z,102500
2023-03-01T21:10:00.775Z,102500
2023-03-01T21:15:00.615Z,102500
2023-03-01T21:20:00.663Z,102510
2023-03-01T21:25:00.624Z,102510
2023-03-01T21:30:00.741Z,102510
2023-03-01T21:35:00.628Z,102510
2023-03-01T21:40:00.755Z,102510
2023-03-01T21:45:00.448Z,102510
2023-03-01T21:50:00.565Z,102510
2023-03-01T21:55:00.483Z,102510
2023-03-01T22:00:01.043Z,102500
2023-03-01T22:05:00.512Z,102500
2023-03-01T22:10:00.520Z,102500
2023-03-01T22:15:00.429Z,102500
2023-03-01T22:20:00.460Z,102500
2023-03-01T22:25:00.458Z,102500
2023-03-01T22:30:00.450Z,102500
2023-03-01T22:35:00.544Z,102500
2023-03-01T22:40:00.796Z,102510
2023-03-01T22:45:00.450Z,102510
2023-03-01T22:50:00.471Z,102520
2023-03-01T22:55:00.458Z,102530
2023-03-01T23:00:01.596Z,102530
2023-03-01T23:05:00.425Z,102530
2023-03-01T23:10:00.478Z,102520
2023-03-01T23:15:00.429Z,102520
2023-03-01T23:20:00.984Z,102520
2023-03-01T23:25:00.469Z,102520
2023-03-01T23:30:00.453Z,102510
2023-03-01T23:35:00.447Z,102510
2023-03-01T23:40:00.678Z,102500
2023-03-01T23:45:00.649Z,102500
2023-03-01T23:50:00.448Z,102500
2023-03-01T23:55:00.469Z,102490
